Flight Track Log - Related Links

Times and Time Zones

All times are in EDT time to prevent confusion due to time zone crossing. See the N143DE flight status page for this flight to view local times or setup timezone preferences in your user account.

Time Position Orientation Groundspeed Altitude Reporting Facility
EDT Latitude Longitude Course Direction KTS MPH feet Rate Location/Type
Mon 05:00:25 AM 33.6667 -84.3667 68° East 149 171 3,700  Level Atlanta TRACON
Mon 05:01:37 AM 33.6667 -84.3000 90° East 168 193 5,900 1,955 Climbing Atlanta TRACON
Mon 05:02:37 AM 33.6167 -84.3000 180° South 181 208 8,000 1,848 Climbing Atlanta TRACON
Mon 05:04:55 AM 33.5122 -84.3078 184° South 176 203 12,000 1,667 Climbing Atlanta Center
Mon 05:05:55 AM 33.4622 -84.3053 178° South 182 209 13,500 1,361 Climbing Atlanta Center
Mon 05:06:54 AM 33.4058 -84.2925 169° South 201 231 14,700 1,200 Climbing Atlanta Center
Mon 05:07:55 AM 33.3453 -84.2800 170° South 206 237 15,900 1,091 Climbing Atlanta Center
Mon 05:08:55 AM 33.2847 -84.2575 163° South 220 253 16,900 1,008 Climbing Atlanta Center
Mon 05:09:54 AM 33.2264 -84.2350 162° South 220 253 17,900 950 Climbing Atlanta Center
Mon 05:10:55 AM 33.1597 -84.2075 161° South 225 259 18,800 942 Climbing Atlanta Center
Mon 05:11:55 AM 33.1011 -84.1825 160° South 225 259 19,800 1,059 Climbing Atlanta Center
Mon 05:12:54 AM 33.0428 -84.1553 159° South 225 259 20,900 950 Climbing Atlanta Center
Mon 05:13:55 AM 32.9886 -84.1356 163° South 225 259 21,700 800 Climbing Atlanta Center
Mon 05:14:54 AM 32.9300 -84.1131 162° South 225 259 22,500 750 Climbing Atlanta Center
Mon 05:15:55 AM 32.8736 -84.0858 158° South 225 259 23,200 744 Climbing Atlanta Center
Mon 05:16:55 AM 32.8133 -84.0661 165° South 225 259 24,000 700 Climbing Atlanta Center
Mon 05:17:55 AM 32.7528 -84.0461 164° South 225 259 24,600 504 Climbing Atlanta Center
Mon 05:18:54 AM 32.6900 -84.0192 160° South 225 259 25,000 252 Climbing Atlanta Center
Mon 05:19:54 AM 32.6233 -83.9944 163° South 235 270 25,100 50 Climbing Atlanta Center
Mon 05:20:55 AM 32.5522 -83.9650 161° South 256 295 25,100  Level Atlanta Center
Mon 05:21:55 AM 32.4750 -83.9356 162° South 270 311 25,100  Level Atlanta Center
Mon 05:22:55 AM 32.3997 -83.9036 160° South 283 326 25,100  Level Atlanta Center
Mon 05:23:54 AM 32.3206 -83.8742 163° South 288 331 25,100 -50 Level Atlanta Center
Mon 05:24:54 AM 32.2600 -83.8497 161° South 288 331 25,000 -50 Descending Atlanta Center
Mon 05:25:55 AM 32.1722 -83.8156 162° South 288 331 25,000  Level Atlanta Center
Mon 05:27:16 AM 32.0675 -83.7728 161° South 287 330 25,000  Level Jacksonville Center
Mon 05:28:16 AM 31.9883 -83.7425 162° South 287 330 25,000  Level Jacksonville Center
Mon 05:29:16 AM 31.9114 -83.7125 162° South 287 330 25,000  Level Jacksonville Center
Mon 05:30:16 AM 31.8281 -83.6800 162° South 287 330 25,000  Level Jacksonville Center
Mon 05:31:16 AM 31.7489 -83.6450 159° South 292 336 25,000  Level Jacksonville Center
Mon 05:32:16 AM 31.6717 -83.6175 163° South 292 336 25,000  Level Jacksonville Center
Mon 05:33:16 AM 31.5906 -83.5878 163° South 292 336 25,000  Level Jacksonville Center
Mon 05:34:16 AM 31.5114 -83.5603 164° South 297 342 25,000  Level Jacksonville Center
Mon 05:35:16 AM 31.4361 -83.5331 163° South 297 342 25,000  Level Jacksonville Center
Mon 05:36:16 AM 31.3569 -83.5008 161° South 297 342 25,000  Level Jacksonville Center
Mon 05:37:16 AM 31.2778 -83.4711 162° South 302 348 25,000  Level Jacksonville Center
Mon 05:38:16 AM 31.1986 -83.4392 161° South 302 348 25,000  Level Jacksonville Center
Mon 05:39:16 AM 31.1194 -83.4094 162° South 302 348 25,000  Level Jacksonville Center
Mon 05:40:16 AM 31.0422 -83.3822 163° South 297 342 25,000  Level Jacksonville Center
Mon 05:41:16 AM 30.9672 -83.3528 161° South 302 348 25,000  Level Jacksonville Center
Mon 05:42:16 AM 30.8900 -83.3211 161° South 302 348 25,000  Level Jacksonville Center
Mon 05:43:16 AM 30.8131 -83.2917 162° South 302 348 25,000  Level Jacksonville Center
Mon 05:44:16 AM 30.7483 -83.2383 145° Southeast 282 325 25,000  Level Jacksonville Center
Mon 05:45:16 AM 30.7025 -83.1583 124° Southeast 282 325 25,000  Level Jacksonville Center
Mon 05:46:16 AM 30.6569 -83.0808 124° Southeast 282 325 25,000  Level Jacksonville Center
Mon 05:47:16 AM 30.5983 -83.0181 137° Southeast 287 330 25,000  Level Jacksonville Center
Mon 05:48:16 AM 30.5233 -82.9722 152° Southeast 287 330 25,000  Level Jacksonville Center
Mon 05:49:16 AM 30.4481 -82.9311 155° Southeast 292 336 25,000  Level Jacksonville Center
Mon 05:50:16 AM 30.3750 -82.8903 154° Southeast 297 342 25,000  Level Jacksonville Center
Mon 05:51:16 AM 30.3019 -82.8469 153° Southeast 297 342 25,000  Level Jacksonville Center
Mon 05:52:16 AM 30.2247 -82.8061 155° Southeast 297 342 25,000  Level Jacksonville Center
Mon 05:53:16 AM 30.1494 -82.7628 154° Southeast 297 342 25,000  Level Jacksonville Center
Mon 05:54:16 AM 30.0764 -82.7222 154° Southeast 297 342 25,000  Level Jacksonville Center
Mon 05:55:16 AM 30.0075 -82.6864 156° South 297 342 25,000  Level Jacksonville Center
Mon 05:56:16 AM 29.9239 -82.6361 152° Southeast 297 342 25,000 -50 Level Jacksonville Center
Mon 05:57:16 AM 29.8486 -82.5956 155° Southeast 297 342 24,900 -950 Descending Jacksonville Center
Mon 05:58:16 AM 29.7714 -82.5506 153° Southeast 302 348 23,100 -1,750 Descending Jacksonville Center
Mon 05:59:16 AM 29.7064 -82.5147 154° Southeast 307 353 21,400 -1,900 Descending Jacksonville Center
Mon 06:00:16 AM 29.6164 -82.4672 155° Southeast 318 366 19,300 -2,233 Descending Jacksonville Center
Mon 06:00:42 AM 29.5747 -82.4461 156° South 324 373 18,200 -2,438 Descending Jacksonville Center
Mon 06:00:48 AM 29.5622 -82.4436 170° South 323 372 18,000 -1,059 Descending Jacksonville Center
Mon 06:01:16 AM 29.5369 -82.4272 151° Southeast 318 366 17,600 -1,574 Descending Jacksonville Center
Mon 06:01:49 AM 29.4889 -82.4011 155° Southeast 289 333 16,400 -1,700 Descending Jacksonville Center
Mon 06:02:16 AM 29.4639 -82.3869 154° Southeast 306 352 15,900 -1,869 Descending Jacksonville Center
Mon 06:02:50 AM 29.4200 -82.3633 155° Southeast 263 303 14,500 -4,900 Descending Jacksonville Center
Mon 06:03:16 AM 29.3969 -82.3467 148° Southeast 291 335 11,000 -1,700 Descending Jacksonville Center
Mon 06:03:50 AM 29.3550 -82.3256 156° South 261 300 12,800 1,300 Climbing Jacksonville Center
Mon 06:04:16 AM 29.3319 -82.3114 152° Southeast 270 311 12,300 -1,377 Descending Jacksonville Center
Mon 06:04:51 AM 29.2858 -82.2878 156° South 256 295 11,400 -1,200 Descending Jacksonville Center
Mon 06:05:16 AM 29.2672 -82.2761 151° Southeast 264 304 11,100 -1,180 Descending Jacksonville Center
Mon 06:05:52 AM 29.2253 -82.2550 156° South 245 282 10,200 -1,200 Descending Jacksonville Center
Mon 06:06:16 AM 29.2044 -82.2456 158° South 256 295 9,900 -1,100 Descending Jacksonville Center
Mon 06:06:52 AM 29.1644 -82.2172 148° Southeast 248 285 9,100 -900 Descending Jacksonville Center
Mon 06:07:16 AM 29.1519 -82.1983 127° Southeast 246 283 9,000 -98 Descending Jacksonville Center
Mon 06:07:53 AM 29.1267 -82.1581 126° Southeast 229 264 9,000  Level Jacksonville Center
Mon 06:08:16 AM 29.1139 -82.1414 131° Southeast 235 270 9,000  Level Jacksonville Center
Mon 06:09:16 AM 29.0719 -82.0800 128° Southeast 230 265 9,000  Level Jacksonville Center
Mon 06:10:16 AM 29.0297 -82.0186 128° Southeast 242 278 9,000  Level Jacksonville Center
Mon 06:12:32 AM 28.9333 -81.8667 126° Southeast 249 287 9,000  Level Orlando TRACON
Mon 06:13:32 AM 28.8833 -81.8167 139° Southeast 248 285 9,000  Level Orlando TRACON
Mon 06:14:38 AM 28.8333 -81.7500 131° Southeast 249 287 9,000  Level Orlando TRACON
Mon 06:15:38 AM 28.7667 -81.7000 147° Southeast 247 284 9,000  Level Orlando TRACON
Mon 06:16:38 AM 28.7167 -81.6667 150° Southeast 240 276 9,000 -421 Level Orlando TRACON
Mon 06:17:32 AM 28.6667 -81.6167 139° Southeast 239 275 8,200 -895 Descending Orlando TRACON
Mon 06:18:32 AM 28.6167 -81.5833 150° Southeast 226 260 7,300 -1,050 Descending Orlando TRACON
Mon 06:19:32 AM 28.5667 -81.5333 139° Southeast 218 251 6,100 -1,148 Descending Orlando TRACON
Mon 06:20:27 AM 28.5167 -81.5000 150° Southeast 224 258 5,100 -991 Descending Orlando TRACON
Mon 06:21:27 AM 28.4667 -81.4667 150° Southeast 226 260 4,200 -857 Descending Orlando TRACON
Mon 06:22:33 AM 28.4167 -81.4167 139° Southeast 223 257 3,300 -619 Descending Orlando TRACON
Mon 06:23:33 AM 28.3667 -81.4000 164° South 180 207 2,900 -550 Descending Orlando TRACON
Mon 06:24:33 AM 28.3500 -81.3500 111° Southeast 148 170 2,200 -1,000 Descending Orlando TRACON
Mon 06:25:33 AM 28.3667 -81.3333 41° Northeast 129 148 900 -850 Descending Orlando TRACON
Mon 06:26:33 AM 28.4000 -81.3333 360° North 91 105 500 -400 Descending Orlando TRACON
Mon 06:28:00 AM 28.4294 -81.3090 North  Level Estimated
Mon 06:35:00 AM 28.4294 -81.3090 170° South  Level Estimated
Mon 06:36:00 AM 28.4294 -81.3090 170° South  Level Estimated
Mon 06:37:00 AM 28.4294 -81.3090 170° South  Level Estimated

Login

Don't have an account? Register now (free) for customized features, flight alerts, and more!